Time;durP1;ratioP1;P1;durP2;ratioP2;P2;SDS_P1;SDS_P2;PMS_P1;PMS_P2;Temp;Humidity;BMP_temperature;BMP_pressure;BME280_temperature;BME280_humidity;BME280_pressure;Samples;Min_cycle;Max_cycle;Signal;HPM_P1;HPM_P2
2022/01/07 00:01:32;;;;;;;15.30;8.93;;;;;;;3.30;76.72;99900.63;5034281;28;20042;-55
2022/01/07 00:03:57;;;;;;;17.55;9.30;;;;;;;3.32;76.70;99898.13;5034418;28;20124;-55
2022/01/07 00:06:28;;;;;;;14.88;8.40;;;;;;;3.29;77.18;99887.72;5033731;28;20120;-55
2022/01/07 00:08:56;;;;;;;13.65;8.95;;;;;;;3.28;77.57;99889.44;5016647;28;20034;-55
2022/01/07 00:11:27;;;;;;;16.48;8.60;;;;;;;3.30;76.52;99877.56;5032923;28;20037;-56
2022/01/07 00:13:52;;;;;;;13.57;9.27;;;;;;;3.28;77.39;99871.50;5016639;28;20037;-55
2022/01/07 00:16:21;;;;;;;20.85;9.35;;;;;;;3.27;76.93;99877.44;5034174;28;20042;-55
2022/01/07 00:18:56;;;;;;;14.35;7.82;;;;;;;3.30;76.81;99867.31;5032780;28;20048;-55
2022/01/07 00:21:22;;;;;;;13.63;8.18;;;;;;;3.23;76.37;99867.84;5034034;28;20037;-55
2022/01/07 00:23:48;;;;;;;30.10;9.75;;;;;;;3.25;76.90;99862.81;5015915;28;20036;-55
2022/01/07 00:26:16;;;;;;;15.48;8.60;;;;;;;3.25;76.69;99862.81;5033582;28;20033;-55
2022/01/07 00:28:50;;;;;;;15.02;7.57;;;;;;;3.24;76.88;99873.88;5034328;28;20069;-55
2022/01/07 00:31:15;;;;;;;21.92;11.25;;;;;;;3.26;76.85;99865.44;5016409;28;20049;-55
2022/01/07 00:33:41;;;;;;;12.45;7.38;;;;;;;3.25;76.60;99862.81;5033748;28;20042;-55
2022/01/07 00:36:06;;;;;;;14.85;8.65;;;;;;;3.27;76.66;99876.56;5033202;28;20034;-55
2022/01/07 00:38:34;;;;;;;13.02;7.35;;;;;;;3.25;77.25;99861.13;5033429;28;20037;-56
2022/01/07 00:41:05;;;;;;;19.40;8.32;;;;;;;3.26;77.04;99883.38;5033353;28;20112;-55
2022/01/07 00:43:36;;;;;;;15.52;8.63;;;;;;;3.27;76.38;99871.44;5032434;28;20064;-55
2022/01/07 00:46:04;;;;;;;16.25;8.65;;;;;;;3.26;77.36;99865.44;5015464;28;20060;-55
2022/01/07 00:48:32;;;;;;;13.85;7.95;;;;;;;3.26;77.22;99854.31;5015928;28;20037;-55
2022/01/07 00:51:09;;;;;;;17.35;7.50;;;;;;;3.25;76.86;99843.19;5015518;28;20095;-55
2022/01/07 00:53:41;;;;;;;12.38;6.97;;;;;;;3.24;76.54;99840.56;5033109;28;20049;-55
2022/01/07 00:56:13;;;;;;;13.50;7.78;;;;;;;3.24;76.41;99841.44;5032424;28;20044;-55
2022/01/07 00:58:46;;;;;;;16.48;8.93;;;;;;;3.24;76.43;99832.88;5032059;28;20451;-55
2022/01/07 01:01:12;;;;;;;14.75;7.53;;;;;;;3.25;76.47;99834.63;5015449;28;20071;-55
2022/01/07 01:03:40;;;;;;;14.02;6.80;;;;;;;3.23;76.41;99842.25;5033709;28;20033;-55
2022/01/07 01:06:10;;;;;;;9.57;6.70;;;;;;;3.23;76.53;99833.69;5032333;28;20034;-55
2022/01/07 01:08:42;;;;;;;9.60;6.80;;;;;;;3.24;76.59;99820.94;5032405;28;20057;-55
2022/01/07 01:11:16;;;;;;;17.50;7.50;;;;;;;3.24;76.52;99820.94;5015894;28;20102;-55
2022/01/07 01:13:49;;;;;;;16.80;7.20;;;;;;;3.24;76.61;99820.94;5015440;28;20048;-55
2022/01/07 01:16:19;;;;;;;17.90;6.80;;;;;;;3.22;76.56;99809.75;5033882;28;20048;-55
2022/01/07 01:18:49;;;;;;;10.35;6.75;;;;;;;3.20;76.48;99811.38;5032049;28;20481;-55
2022/01/07 01:21:18;;;;;;;17.23;7.03;;;;;;;3.22;76.41;99806.34;5033046;28;20052;-55
2022/01/07 01:23:46;;;;;;;17.08;6.95;;;;;;;3.24;76.30;99807.28;5031975;28;20480;-55
2022/01/07 01:26:18;;;;;;;15.20;6.68;;;;;;;3.20;76.87;99798.56;5015635;28;20037;-55
2022/01/07 01:28:47;;;;;;;13.88;7.05;;;;;;;3.19;76.32;99789.16;5015436;28;20492;-55
2022/01/07 01:31:19;;;;;;;14.05;6.50;;;;;;;3.19;76.40;99791.72;5033124;28;20029;-55
2022/01/07 01:33:47;;;;;;;12.15;6.28;;;;;;;3.19;76.73;99779.78;5032792;28;20539;-55
2022/01/07 01:36:18;;;;;;;15.35;6.53;;;;;;;3.19;76.19;99778.91;5015324;28;20038;-55
2022/01/07 01:38:48;;;;;;;12.65;5.97;;;;;;;3.19;76.33;99778.91;5015330;28;20037;-55
2022/01/07 01:41:22;;;;;;;15.70;5.57;;;;;;;3.18;76.10;99765.22;5032236;28;20485;-55
2022/01/07 01:43:55;;;;;;;11.32;5.97;;;;;;;3.16;75.87;99760.84;5015775;28;20148;-55
2022/01/07 01:46:26;;;;;;;13.00;5.82;;;;;;;3.19;76.25;99755.88;5015166;28;20040;-55
2022/01/07 01:48:58;;;;;;;11.90;4.95;;;;;;;3.18;76.46;99767.78;5015670;28;20068;-55
2022/01/07 01:51:24;;;;;;;15.88;6.22;;;;;;;3.17;76.24;99742.13;5031563;28;20033;-55
2022/01/07 01:53:55;;;;;;;9.57;5.70;;;;;;;3.15;76.62;99742.03;5032351;28;20041;-55
2022/01/07 01:56:23;;;;;;;11.95;5.93;;;;;;;3.16;75.67;99742.94;5031645;28;20037;-55
2022/01/07 01:58:51;;;;;;;14.00;5.60;;;;;;;3.13;76.12;99724.88;5031776;28;20084;-55
2022/01/07 02:01:17;;;;;;;10.63;5.13;;;;;;;3.13;75.97;99730.84;5014759;28;20030;-55
2022/01/07 02:03:42;;;;;;;14.43;5.50;;;;;;;3.13;75.95;99730.84;5031575;28;20044;-55
2022/01/07 02:06:09;;;;;;;10.52;5.25;;;;;;;3.13;76.02;99732.56;5035508;28;20045;-55
2022/01/07 02:08:36;;;;;;;7.25;5.03;;;;;;;3.11;76.11;99709.44;5036434;28;20033;-55
2022/01/07 02:11:04;;;;;;;11.02;5.38;;;;;;;3.12;75.48;99712.88;5018848;28;20396;-55
2022/01/07 02:13:30;;;;;;;16.10;6.03;;;;;;;3.13;76.22;99714.63;5018528;28;20069;-55
2022/01/07 02:15:56;;;;;;;11.00;5.43;;;;;;;3.12;75.96;99698.38;5036426;28;20073;-55
2022/01/07 02:18:21;;;;;;;8.65;5.75;;;;;;;3.12;75.84;99693.25;5036232;28;20033;-55
2022/01/07 02:20:48;;;;;;;11.13;5.22;;;;;;;3.09;75.31;99694.81;5036159;28;20033;-55
2022/01/07 02:23:15;;;;;;;12.88;5.78;;;;;;;3.09;75.53;99699.94;5036193;28;20048;-56
2022/01/07 02:25:41;;;;;;;15.48;4.80;;;;;;;3.10;76.00;99683.75;5034730;28;20108;-55
2022/01/07 02:28:07;;;;;;;19.00;5.30;;;;;;;3.09;75.80;99685.47;5036350;28;20377;-55
2022/01/07 02:30:33;;;;;;;10.45;4.65;;;;;;;3.10;75.68;99684.66;5018385;28;20164;-55
2022/01/07 02:33:01;;;;;;;9.48;5.43;;;;;;;3.09;75.27;99682.00;5036038;28;20508;-55
2022/01/07 02:35:30;;;;;;;7.55;4.88;;;;;;;3.09;75.34;99657.28;5035934;28;20045;-55
2022/01/07 02:37:56;;;;;;;10.90;5.05;;;;;;;3.09;75.15;99667.53;5035236;28;20121;-55
2022/01/07 02:40:21;;;;;;;15.10;5.97;;;;;;;3.09;75.75;99658.97;5035938;28;20033;-55
2022/01/07 02:42:47;;;;;;;10.70;5.00;;;;;;;3.09;75.74;99651.28;5034689;28;20112;-55
2022/01/07 02:45:14;;;;;;;7.60;4.20;;;;;;;3.10;75.27;99658.16;5036006;28;20033;-55
2022/01/07 02:47:54;;;;;;;6.82;4.63;;;;;;;3.08;74.90;99650.44;5017999;28;20083;-55
2022/01/07 02:50:35;;;;;;;10.73;3.95;;;;;;;3.11;75.45;99645.44;5035635;28;20048;-55
2022/01/07 02:53:03;;;;;;;12.27;4.57;;;;;;;3.13;75.67;99658.28;5034735;28;20080;-55
2022/01/07 02:55:30;;;;;;;8.75;4.35;;;;;;;3.12;75.35;99657.41;5017812;28;20048;-55
2022/01/07 02:57:58;;;;;;;11.55;5.07;;;;;;;3.09;75.39;99662.41;5035081;28;20455;-55
2022/01/07 03:00:25;;;;;;;12.75;4.82;;;;;;;3.09;75.42;99652.19;5017466;28;20045;-55
2022/01/07 03:02:52;;;;;;;10.60;4.68;;;;;;;3.11;75.35;99653.13;5017631;28;20612;-54
2022/01/07 03:05:19;;;;;;;7.55;4.55;;;;;;;3.12;75.39;99651.41;5017994;28;20378;-55
2022/01/07 03:07:47;;;;;;;7.90;4.80;;;;;;;3.13;75.37;99645.47;5035363;28;20041;-55
2022/01/07 03:10:14;;;;;;;8.07;4.68;;;;;;;3.13;75.33;99638.66;5035325;28;20033;-55
2022/01/07 03:12:43;;;;;;;7.72;4.47;;;;;;;3.12;75.85;99647.16;5033901;28;20557;-55
2022/01/07 03:15:09;;;;;;;9.77;5.32;;;;;;;3.14;75.77;99640.41;5033964;28;20105;-55
2022/01/07 03:17:37;;;;;;;16.13;4.90;;;;;;;3.11;75.60;99635.19;5034757;28;20116;-55
2022/01/07 03:20:07;;;;;;;16.80;5.40;;;;;;;3.13;75.67;99633.53;5017380;28;20040;-55
2022/01/07 03:22:33;;;;;;;6.68;4.57;;;;;;;3.14;75.54;99631.88;5017604;28;20044;-55
2022/01/07 03:24:58;;;;;;;11.13;4.65;;;;;;;3.12;75.75;99623.25;5034993;28;20037;-55
2022/01/07 03:27:28;;;;;;;5.20;3.90;;;;;;;3.12;75.85;99629.22;5034686;28;20040;-55
2022/01/07 03:29:57;;;;;;;11.18;4.72;;;;;;;3.14;75.44;99626.75;5034743;28;20075;-55
2022/01/07 03:32:24;;;;;;;8.05;4.75;;;;;;;3.14;76.39;99622.47;5034713;28;20069;-55
2022/01/07 03:34:51;;;;;;;10.05;4.93;;;;;;;3.17;75.80;99612.34;5017572;28;20386;-55
2022/01/07 03:37:19;;;;;;;9.30;5.07;;;;;;;3.18;75.66;99616.66;5033483;28;20057;-55
2022/01/07 03:39:50;;;;;;;6.03;3.83;;;;;;;3.16;75.65;99608.06;5016947;28;20033;-55
2022/01/07 03:42:24;;;;;;;6.07;4.60;;;;;;;3.13;76.10;99609.63;5033505;28;20064;-54
2022/01/07 03:44:55;;;;;;;12.18;4.07;;;;;;;3.12;75.57;99603.63;5034735;28;20133;-55
2022/01/07 03:47:23;;;;;;;7.40;4.05;;;;;;;3.13;75.88;99604.50;5017189;28;20037;-55
2022/01/07 03:49:49;;;;;;;8.07;3.88;;;;;;;3.13;76.12;99607.94;5033296;28;20033;-55
2022/01/07 03:52:14;;;;;;;11.48;4.65;;;;;;;3.14;75.98;99606.25;5034584;28;20041;-55
2022/01/07 03:54:44;;;;;;;8.60;4.07;;;;;;;3.11;76.33;99604.47;5034418;28;20037;-56
2022/01/07 03:57:14;;;;;;;7.03;4.38;;;;;;;3.12;75.98;99597.63;5017355;28;20165;-55
2022/01/07 03:59:39;;;;;;;8.00;4.50;;;;;;;3.11;75.93;99601.91;5033543;28;20048;-55
2022/01/07 04:02:07;;;;;;;12.35;4.15;;;;;;;3.10;76.26;99604.38;5034513;28;20053;-55
2022/01/07 04:04:35;;;;;;;15.35;4.80;;;;;;;3.12;75.90;99606.19;5034496;28;20037;-55
2022/01/07 04:07:01;;;;;;;7.15;3.90;;;;;;;3.13;75.92;99595.13;5033965;28;20037;-55
2022/01/07 04:09:29;;;;;;;8.18;4.20;;;;;;;3.11;76.15;99599.34;5032614;28;20034;-55
2022/01/07 04:11:54;;;;;;;10.70;4.82;;;;;;;3.13;76.30;99602.81;5033120;28;20083;-55
2022/01/07 04:14:20;;;;;;;7.72;3.97;;;;;;;3.11;76.09;99590.75;5034063;28;20065;-55
2022/01/07 04:16:45;;;;;;;7.72;4.20;;;;;;;3.12;76.68;99593.38;5033220;28;20045;-55
2022/01/07 04:19:11;;;;;;;8.80;4.70;;;;;;;3.11;76.16;99589.09;5034020;28;20081;-55
2022/01/07 04:21:36;;;;;;;8.27;4.07;;;;;;;3.13;76.38;99584.88;5034059;28;20045;-55
2022/01/07 04:24:02;;;;;;;7.55;3.75;;;;;;;3.11;76.13;99585.66;5033409;28;20103;-55
2022/01/07 04:26:27;;;;;;;9.15;4.72;;;;;;;3.09;76.46;99585.59;5034040;28;20104;-55
2022/01/07 04:28:53;;;;;;;9.73;4.90;;;;;;;3.10;76.53;99589.03;5033578;28;20046;-55
2022/01/07 04:31:21;;;;;;;8.10;4.53;;;;;;;3.11;76.24;99585.66;5032850;28;20076;-55
2022/01/07 04:33:50;;;;;;;8.48;4.40;;;;;;;3.10;76.47;99584.78;5015977;28;20037;-55
2022/01/07 04:36:17;;;;;;;8.02;5.05;;;;;;;3.09;76.43;99584.72;5016127;28;20052;-55
2022/01/07 04:38:48;;;;;;;9.82;4.35;;;;;;;3.08;76.55;99582.97;5032481;28;20381;-55
2022/01/07 04:41:16;;;;;;;9.48;4.82;;;;;;;3.10;76.35;99576.22;5015857;28;20041;-55
2022/01/07 04:43:48;;;;;;;8.70;4.85;;;;;;;3.08;76.73;99586.41;5033873;28;20037;-55
2022/01/07 04:46:14;;;;;;;8.77;4.35;;;;;;;3.11;76.64;99577.97;5015922;28;20135;-55
2022/01/07 04:48:50;;;;;;;11.60;4.95;;;;;;;3.12;76.20;99589.94;5033539;28;20095;-55
2022/01/07 04:51:20;;;;;;;7.88;4.03;;;;;;;3.09;76.44;99582.16;5015747;28;20059;-55
2022/01/07 04:53:46;;;;;;;11.32;4.43;;;;;;;3.10;76.54;99578.78;5016111;28;20041;-55
2022/01/07 04:56:13;;;;;;;5.70;4.20;;;;;;;3.10;76.37;99574.53;5032244;28;20523;-55
2022/01/07 04:58:39;;;;;;;5.65;3.85;;;;;;;3.08;76.48;99573.59;5032188;28;20041;-54
2022/01/07 05:01:09;;;;;;;5.97;3.70;;;;;;;3.08;77.10;99585.53;5033381;28;20032;-55
2022/01/07 05:03:40;;;;;;;8.80;3.65;;;;;;;3.10;76.42;99576.22;5032146;28;20499;-55
2022/01/07 05:06:34;;;;;;;7.38;4.68;;;;;;;3.09;76.37;99574.47;5015894;28;20167;-55
2022/01/07 05:08:58;;;;;;;6.97;4.10;;;;;;;3.07;76.88;99565.84;5033183;28;20030;-55
2022/01/07 05:11:26;;;;;;;8.10;4.10;;;;;;;3.08;77.07;99570.16;5033555;28;20124;-55
2022/01/07 05:13:52;;;;;;;8.70;4.28;;;;;;;3.08;76.63;99571.03;5015445;28;20033;-56
2022/01/07 05:16:17;;;;;;;9.15;4.70;;;;;;;3.08;76.89;99578.72;5033067;28;20041;-55
2022/01/07 05:18:45;;;;;;;8.73;4.22;;;;;;;3.07;76.96;99571.84;5032215;28;20037;-55
2022/01/07 05:21:15;;;;;;;4.57;2.97;;;;;;;3.07;76.63;99566.72;5032008;28;20033;-55
2022/01/07 05:23:48;;;;;;;8.68;4.45;;;;;;;3.08;77.00;99575.28;5032500;28;20048;-55
2022/01/07 05:26:16;;;;;;;5.53;4.57;;;;;;;3.08;77.03;99571.03;5032842;28;20489;-55
2022/01/07 05:28:41;;;;;;;8.25;4.47;;;;;;;3.09;76.97;99575.34;5032984;28;20109;-55
2022/01/07 05:31:12;;;;;;;10.63;5.53;;;;;;;3.10;77.28;99566.84;5032823;28;20111;-55
2022/01/07 05:33:38;;;;;;;6.90;4.00;;;;;;;3.12;76.89;99569.47;5015281;28;20049;-55
2022/01/07 05:36:03;;;;;;;9.73;4.72;;;;;;;3.13;76.76;99566.09;5033098;28;20045;-55
2022/01/07 05:38:29;;;;;;;9.50;4.50;;;;;;;3.15;76.95;99569.59;5033708;28;20505;-56
2022/01/07 05:40:59;;;;;;;8.23;3.60;;;;;;;3.14;76.67;99570.41;5036664;28;20042;-55
2022/01/07 05:43:28;;;;;;;7.63;3.72;;;;;;;3.15;76.98;99574.72;5051890;28;20029;-55
2022/01/07 05:45:59;;;;;;;7.05;4.20;;;;;;;3.12;76.62;99569.47;5052233;28;20037;-55
2022/01/07 05:48:26;;;;;;;4.90;3.75;;;;;;;3.15;76.79;99565.31;5019458;28;20128;-55
2022/01/07 05:51:00;;;;;;;5.13;3.97;;;;;;;3.17;77.52;99557.72;5018952;28;20128;-55
2022/01/07 05:53:38;;;;;;;3.20;2.88;;;;;;;3.18;76.94;99560.31;5035661;28;20033;-55
2022/01/07 05:56:04;;;;;;;4.90;4.15;;;;;;;3.18;76.55;99556.91;5035020;28;20048;-55
2022/01/07 05:58:30;;;;;;;3.90;3.17;;;;;;;3.19;77.07;99558.66;5036705;28;20026;-55
2022/01/07 06:01:00;;;;;;;3.88;3.47;;;;;;;3.18;76.65;99547.53;5036576;28;20068;-55
2022/01/07 06:03:26;;;;;;;5.50;3.30;;;;;;;3.18;76.98;99556.91;5018113;28;20572;-54
2022/01/07 06:05:52;;;;;;;5.55;4.50;;;;;;;3.18;76.71;99568.00;5035260;28;20125;-55
2022/01/07 06:08:25;;;;;;;4.50;4.05;;;;;;;3.18;77.43;99559.47;5035035;28;20072;-55
2022/01/07 06:10:51;;;;;;;5.35;4.50;;;;;;;3.19;77.03;99563.78;5035199;28;20046;-55
2022/01/07 06:13:16;;;;;;;3.53;3.15;;;;;;;3.19;77.07;99548.41;5037265;28;20132;-55
2022/01/07 06:15:42;;;;;;;5.20;3.90;;;;;;;3.20;77.06;99553.59;5036535;28;20072;-55
2022/01/07 06:18:07;;;;;;;5.20;4.00;;;;;;;3.20;77.00;99556.13;5036186;28;20034;-55
2022/01/07 06:20:33;;;;;;;5.65;3.22;;;;;;;3.22;77.08;99550.22;5036408;28;20500;-55
2022/01/07 06:22:58;;;;;;;5.63;3.78;;;;;;;3.21;77.42;99546.75;5035737;28;20087;-55
2022/01/07 06:25:24;;;;;;;5.50;3.80;;;;;;;3.23;76.88;99547.69;5035574;28;20041;-55
2022/01/07 06:27:50;;;;;;;5.90;3.83;;;;;;;3.20;77.38;99540.78;5036109;28;20037;-55
2022/01/07 06:30:15;;;;;;;8.65;4.57;;;;;;;3.20;77.37;99540.78;5034840;28;20040;-55
2022/01/07 06:32:42;;;;;;;9.25;3.83;;;;;;;3.22;77.56;99548.50;5035703;28;20093;-55
2022/01/07 06:35:09;;;;;;;7.10;3.95;;;;;;;3.21;77.13;99557.00;5018300;28;20041;-55
2022/01/07 06:37:35;;;;;;;5.30;3.33;;;;;;;3.23;77.29;99541.72;5035884;28;20061;-55
2022/01/07 06:40:01;;;;;;;7.25;4.38;;;;;;;3.25;77.14;99547.75;5035864;28;20065;-55
2022/01/07 06:42:27;;;;;;;4.55;3.85;;;;;;;3.23;77.33;99546.84;5034678;28;20034;-55
2022/01/07 06:44:52;;;;;;;6.38;4.55;;;;;;;3.21;77.31;99546.75;5035885;28;20041;-55
2022/01/07 06:47:18;;;;;;;4.63;3.53;;;;;;;3.22;77.70;99550.22;5035602;28;20485;-55
2022/01/07 06:49:43;;;;;;;4.18;3.78;;;;;;;3.23;77.18;99551.97;5018167;28;20554;-54
2022/01/07 06:52:09;;;;;;;3.85;3.45;;;;;;;3.24;77.04;99566.50;5034834;28;20481;-54
2022/01/07 06:54:35;;;;;;;4.30;3.72;;;;;;;3.22;77.55;99560.44;5035367;28;20048;-55
2022/01/07 06:57:00;;;;;;;6.72;3.47;;;;;;;3.24;77.30;99567.38;5035803;28;20042;-55
2022/01/07 06:59:26;;;;;;;4.40;3.85;;;;;;;3.24;77.38;99567.38;5035490;28;20037;-55
2022/01/07 07:01:51;;;;;;;4.13;3.70;;;;;;;3.24;77.56;99577.63;5035311;28;20038;-55
2022/01/07 07:04:17;;;;;;;5.38;3.33;;;;;;;3.25;77.47;99573.38;5035651;28;20037;-55
2022/01/07 07:06:43;;;;;;;4.38;3.97;;;;;;;3.24;77.27;99571.63;5017360;28;20098;-55
2022/01/07 07:09:09;;;;;;;4.05;3.65;;;;;;;3.26;76.92;99575.13;5017643;28;20042;-55
2022/01/07 07:11:35;;;;;;;5.22;3.67;;;;;;;3.24;77.41;99575.06;5017533;28;20034;-56
2022/01/07 07:14:00;;;;;;;5.13;3.88;;;;;;;3.22;77.39;99576.69;5035075;28;20037;-55
2022/01/07 07:16:26;;;;;;;3.92;3.60;;;;;;;3.22;77.37;99571.56;5034095;28;20079;-55
2022/01/07 07:18:51;;;;;;;3.67;3.38;;;;;;;3.25;77.07;99578.50;5035037;28;20056;-54
2022/01/07 07:21:17;;;;;;;4.32;3.10;;;;;;;3.23;77.60;99586.09;5033928;28;20040;-55
2022/01/07 07:23:45;;;;;;;5.88;3.17;;;;;;;3.22;77.47;99579.25;5034835;28;20392;-56
2022/01/07 07:26:11;;;;;;;3.90;3.50;;;;;;;3.23;77.65;99567.31;5034390;28;20124;-55
2022/01/07 07:28:39;;;;;;;4.93;3.47;;;;;;;3.24;77.17;99577.63;5035182;28;20129;-55
2022/01/07 07:31:12;;;;;;;6.40;3.25;;;;;;;3.23;77.71;99580.13;5034789;28;20442;-55
2022/01/07 07:36:32;;;;;;;4.13;3.72;;;;;;;3.24;77.24;99576.75;5025852;28;20053;-55
2022/01/07 07:39:03;;;;;;;4.90;3.58;;;;;;;3.23;77.46;99568.19;5035009;28;20540;-55
2022/01/07 07:41:30;;;;;;;4.43;4.03;;;;;;;3.25;77.33;99565.69;5033529;28;20520;-55
2022/01/07 07:43:57;;;;;;;5.60;3.63;;;;;;;3.24;77.30;99575.06;5017344;28;20400;-55
2022/01/07 07:46:23;;;;;;;6.63;3.47;;;;;;;3.25;77.68;99573.38;5033348;28;20029;-55
2022/01/07 07:48:51;;;;;;;4.25;3.83;;;;;;;3.25;77.84;99576.78;5016629;28;20079;-55
2022/01/07 07:51:20;;;;;;;4.20;3.47;;;;;;;3.24;77.89;99580.16;5016842;28;20041;-55
2022/01/07 07:53:47;;;;;;;5.30;3.83;;;;;;;3.24;77.43;99587.00;5016937;28;20079;-55
2022/01/07 07:56:17;;;;;;;3.75;3.35;;;;;;;3.25;77.74;99588.75;5016824;28;20061;-55
2022/01/07 07:58:43;;;;;;;3.92;3.25;;;;;;;3.23;77.94;99580.13;5016761;28;20041;-55
2022/01/07 08:01:09;;;;;;;4.00;3.22;;;;;;;3.24;77.31;99581.88;5016659;28;20397;-55
2022/01/07 08:03:40;;;;;;;3.95;3.55;;;;;;;3.24;77.97;99571.63;5031478;28;20050;-55
2022/01/07 08:06:09;;;;;;;4.95;3.20;;;;;;;3.23;77.73;99570.75;5033147;28;20034;-55
2022/01/07 08:08:37;;;;;;;3.67;3.33;;;;;;;3.23;77.95;99570.75;5016534;28;20045;-55
2022/01/07 08:11:09;;;;;;;6.97;3.55;;;;;;;3.25;78.18;99568.25;5016513;28;20048;-55
2022/01/07 08:16:20;;;;;;;4.28;3.28;;;;;;;3.23;77.60;99563.06;5033712;28;20041;-55
2022/01/07 08:18:54;;;;;;;5.88;4.05;;;;;;;3.23;77.93;99563.06;5016689;28;20502;-55
2022/01/07 08:21:23;;;;;;;4.57;3.58;;;;;;;3.24;77.63;99559.69;5034078;28;20033;-55
2022/01/07 08:23:54;;;;;;;5.07;2.75;;;;;;;3.22;78.10;99553.63;5032582;28;20037;-55
2022/01/07 08:26:23;;;;;;;3.30;3.00;;;;;;;3.22;77.92;99545.09;5034000;28;20056;-55
2022/01/07 08:29:03;;;;;;;4.20;3.75;;;;;;;3.21;77.93;99539.06;5016055;28;20041;-55
2022/01/07 08:36:47;;;;;;;3.90;3.47;;;;;;;3.20;77.79;99561.25;5033755;28;20030;-55
2022/01/07 08:39:13;;;;;;;5.18;3.53;;;;;;;3.22;77.71;99561.31;5033213;28;20040;-55
2022/01/07 08:41:42;;;;;;;5.10;3.67;;;;;;;3.22;78.03;99566.44;5033728;28;20033;-55
2022/01/07 08:44:11;;;;;;;5.80;3.15;;;;;;;3.24;77.88;99574.19;5032116;28;20045;-55
2022/01/07 08:46:44;;;;;;;5.18;3.90;;;;;;;3.20;77.87;99563.81;5033771;28;20469;-55
2022/01/07 08:49:12;;;;;;;4.10;3.58;;;;;;;3.22;77.60;99560.44;5015654;28;20045;-55
2022/01/07 08:51:40;;;;;;;4.60;3.63;;;;;;;3.24;77.54;99563.94;5032062;28;20056;-54
2022/01/07 08:54:08;;;;;;;4.78;3.88;;;;;;;3.23;78.18;99564.75;5033535;28;20111;-56
2022/01/07 08:56:34;;;;;;;4.53;3.72;;;;;;;3.23;78.53;99557.94;5033424;28;20087;-55
2022/01/07 08:59:04;;;;;;;4.28;3.58;;;;;;;3.22;78.09;99561.31;5033261;28;20033;-55
2022/01/07 09:01:30;;;;;;;7.13;4.38;;;;;;;3.23;77.81;99549.41;5015701;28;20037;-55
2022/01/07 09:03:56;;;;;;;4.25;3.83;;;;;;;3.24;78.14;99548.59;5015925;28;20447;-55
2022/01/07 09:06:21;;;;;;;3.85;3.55;;;;;;;3.25;77.72;99534.97;5033055;28;20084;-54
2022/01/07 09:08:47;;;;;;;6.05;3.83;;;;;;;3.23;78.07;99539.16;5033681;28;20469;-54
2022/01/07 09:11:15;;;;;;;5.30;4.03;;;;;;;3.23;78.13;99531.47;5033322;28;20040;-54
2022/01/07 09:13:45;;;;;;;3.83;3.53;;;;;;;3.22;77.74;99530.56;5033915;28;20489;-55
2022/01/07 09:16:13;;;;;;;6.30;3.70;;;;;;;3.23;78.25;99540.00;5019752;28;20049;-55
2022/01/07 09:18:41;;;;;;;4.13;3.17;;;;;;;3.25;78.09;99548.63;5019454;28;20094;-55
2022/01/07 09:21:12;;;;;;;5.60;3.88;;;;;;;3.25;78.30;99551.19;5037095;28;20045;-55
2022/01/07 09:23:43;;;;;;;3.58;3.28;;;;;;;3.27;77.99;99543.56;5037364;28;20381;-55
2022/01/07 09:26:10;;;;;;;4.20;3.35;;;;;;;3.27;77.99;99558.94;5036043;28;20034;-54
2022/01/07 09:28:39;;;;;;;4.93;3.45;;;;;;;3.30;77.71;99570.19;5019614;28;20120;-55
2022/01/07 09:31:07;;;;;;;3.85;3.15;;;;;;;3.31;78.42;99577.03;5019794;28;20404;-55
2022/01/07 09:33:38;;;;;;;3.85;3.28;;;;;;;3.32;77.80;99570.22;5037060;28;20120;-55
2022/01/07 09:36:09;;;;;;;5.30;3.58;;;;;;;3.33;77.81;99577.97;5020005;28;20041;-55
2022/01/07 09:38:39;;;;;;;5.05;3.67;;;;;;;3.34;78.37;99561.78;5037303;28;20044;-55
2022/01/07 09:41:07;;;;;;;3.38;3.08;;;;;;;3.34;78.26;99558.34;5019357;28;20042;-55
2022/01/07 09:43:38;;;;;;;7.40;3.60;;;;;;;3.33;77.68;99548.91;5019274;28;20037;-55
2022/01/07 09:46:08;;;;;;;5.78;3.55;;;;;;;3.32;78.79;99548.06;5035643;28;20064;-55
2022/01/07 09:48:42;;;;;;;3.80;3.40;;;;;;;3.33;78.37;99549.81;5036880;28;20036;-55
2022/01/07 09:51:14;;;;;;;5.00;3.90;;;;;;;3.34;78.03;99543.88;5019450;28;20041;-56
2022/01/07 09:53:51;;;;;;;4.22;3.63;;;;;;;3.35;78.23;99543.03;5019047;28;20452;-55
2022/01/07 09:56:19;;;;;;;5.45;3.95;;;;;;;3.38;78.25;99543.94;5036248;28;20048;-55
2022/01/07 09:58:51;;;;;;;4.63;4.18;;;;;;;3.38;78.40;99526.91;5035042;28;20041;-55
2022/01/07 10:01:25;;;;;;;5.20;4.05;;;;;;;3.38;78.11;99539.72;5018546;28;20041;-55
2022/01/07 10:03:51;;;;;;;4.82;4.32;;;;;;;3.39;78.41;99531.22;5037082;28;20048;-55
2022/01/07 10:06:26;;;;;;;6.00;4.18;;;;;;;3.40;78.70;99543.22;5036703;28;20037;-55
2022/01/07 10:09:07;;;;;;;5.07;3.42;;;;;;;3.41;78.65;99531.25;5035334;28;20037;-56
2022/01/07 10:11:32;;;;;;;5.43;4.28;;;;;;;3.42;78.05;99528.78;5035594;28;20080;-55
2022/01/07 10:14:18;;;;;;;5.00;4.35;;;;;;;3.41;78.58;99526.13;5036371;28;20057;-54
2022/01/07 10:16:57;;;;;;;6.90;4.10;;;;;;;3.43;77.98;99529.63;5018703;28;20041;-55
2022/01/07 10:19:32;;;;;;;6.88;3.70;;;;;;;3.43;78.40;99530.50;5018468;28;20130;-55
2022/01/07 10:21:59;;;;;;;9.27;4.78;;;;;;;3.45;78.58;99536.53;5018348;28;20045;-55
2022/01/07 10:24:25;;;;;;;5.30;4.25;;;;;;;3.46;78.36;99537.44;5018436;28;20033;-55
2022/01/07 10:27:11;;;;;;;6.65;4.57;;;;;;;3.49;78.25;99527.31;5033743;28;20036;-55
2022/01/07 10:29:38;;;;;;;11.07;5.05;;;;;;;3.48;78.86;99526.41;5034984;28;20039;-55
2022/01/07 10:32:26;;;;;;;6.47;4.47;;;;;;;3.49;78.57;99520.47;5018116;28;20038;-55
2022/01/07 10:35:07;;;;;;;13.40;5.15;;;;;;;3.52;77.94;99521.41;5034716;28;20034;-55
2022/01/07 10:37:56;;;;;;;9.40;5.13;;;;;;;3.53;77.89;99518.88;5018547;28;20072;-55
2022/01/07 10:40:38;;;;;;;6.47;5.20;;;;;;;3.54;78.15;99515.50;5018182;28;20065;-55
2022/01/07 10:43:32;;;;;;;11.20;5.32;;;;;;;3.54;78.61;99528.31;5036156;28;20048;-55
2022/01/07 10:46:00;;;;;;;12.25;6.40;;;;;;;3.55;78.66;99517.25;5035436;28;20485;-54
2022/01/07 10:48:39;;;;;;;10.70;6.03;;;;;;;3.56;78.34;99526.69;5017841;28;20038;-54
2022/01/07 10:51:10;;;;;;;9.65;5.78;;;;;;;3.56;78.71;99506.19;5034258;28;20061;-55
2022/01/07 10:53:37;;;;;;;10.30;5.10;;;;;;;3.57;78.14;99497.69;5035968;28;20124;-55
2022/01/07 10:56:11;;;;;;;13.63;6.40;;;;;;;3.56;78.87;99506.19;5034917;28;20038;-55
2022/01/07 10:58:45;;;;;;;10.13;5.00;;;;;;;3.59;77.98;99497.72;5018380;28;20508;-55
2022/01/07 11:01:36;;;;;;;9.57;5.95;;;;;;;3.61;78.45;99496.09;5034394;28;20030;-55
2022/01/07 11:04:04;;;;;;;9.85;6.10;;;;;;;3.62;78.71;99505.53;5024919;28;20049;-55
2022/01/07 11:06:36;;;;;;;13.48;5.75;;;;;;;3.62;78.78;99501.28;5034133;28;20037;-55
2022/01/07 11:09:04;;;;;;;7.25;6.05;;;;;;;3.63;79.00;99499.59;5035284;28;20041;-55
2022/01/07 11:11:32;;;;;;;8.93;6.10;;;;;;;3.64;78.04;99496.22;5017682;28;20137;-55
2022/01/07 11:14:06;;;;;;;9.52;5.68;;;;;;;3.65;78.51;99500.53;5016954;28;20037;-55
2022/01/07 11:16:36;;;;;;;11.95;7.00;;;;;;;3.64;78.84;99504.78;5017908;28;20041;-55
2022/01/07 11:19:02;;;;;;;12.30;5.63;;;;;;;3.67;78.67;99498.88;5035204;28;20029;-55
2022/01/07 11:21:32;;;;;;;10.52;6.35;;;;;;;3.69;78.26;99488.69;5017581;28;20037;-55
2022/01/07 11:23:59;;;;;;;8.77;5.50;;;;;;;3.68;79.13;99485.25;5034210;28;20083;-56
2022/01/07 11:26:25;;;;;;;12.50;6.63;;;;;;;3.69;78.49;99494.69;5017169;28;20083;-55
2022/01/07 11:29:01;;;;;;;12.32;6.63;;;;;;;3.68;78.60;99482.69;5034157;28;20037;-55
2022/01/07 11:31:33;;;;;;;11.88;6.57;;;;;;;3.70;78.54;99487.88;5017460;28;20037;-55
2022/01/07 11:34:22;;;;;;;9.68;6.43;;;;;;;3.70;78.81;99487.88;5017412;28;20072;-55
2022/01/07 11:36:53;;;;;;;11.70;6.15;;;;;;;3.70;78.99;99480.16;5033213;28;20039;-55
2022/01/07 11:39:22;;;;;;;11.88;6.65;;;;;;;3.70;79.15;99488.75;5034658;28;20034;-55
2022/01/07 11:41:57;;;;;;;14.18;6.57;;;;;;;3.70;79.08;99473.38;5033694;28;20045;-55
2022/01/07 11:44:29;;;;;;;12.80;6.47;;;;;;;3.71;78.83;99487.94;5034780;28;20030;-55
2022/01/07 11:47:15;;;;;;;12.65;6.97;;;;;;;3.70;78.94;99473.38;5034537;28;20092;-55
2022/01/07 11:49:43;;;;;;;12.32;6.38;;;;;;;3.72;78.17;99481.09;5017415;28;20414;-55
2022/01/07 11:52:37;;;;;;;13.93;7.07;;;;;;;3.72;78.76;99470.84;5016779;28;20047;-55
2022/01/07 11:55:23;;;;;;;8.27;5.82;;;;;;;3.72;79.13;99471.72;5034516;28;20029;-55
2022/01/07 11:57:57;;;;;;;11.40;6.95;;;;;;;3.73;78.87;99472.59;5032946;28;20405;-55
2022/01/07 12:00:51;;;;;;;17.35;7.47;;;;;;;3.73;78.90;99472.59;5033711;28;20112;-55